Accueil
METAR-TAF:

METAR-TAF

Aéroports :

Mendoza, Argentine

latitude: 32-50S, longitude: 068-47W, altitude: 705 m

Observation

Le bulletin a été fait il y a 1 heure et 14 minutes, à 08:00 UTC
Vent calme
Température 4°C
Humidité 93%
Pression 1021 hPa
Visibilité 10 km ou plus
pas de nuages en-dessous de 1500 mètres et pas de cumulonimbus.

METAR: SAME 260800Z 00000KT CAVOK 04/03 Q1021

Heure: 06:14 (09:14 UTC)

Prévision

Le bulletin a été fait il y a 4 heures et 14 minutes, à 05:00 UTC
Prévision valable du 26 à 06 UTC au 27 à 06 UTC
Vent 5 kt de sud
Visibilité 10 km ou plus
pas de nuages en-dessous de 1500 mètres et pas de cumulonimbus.

TAF: SAME 260500Z 2606/2706 18005KT CAVOK TX12/2620Z TN02/2610Z

Observations et prévisions météorologiques de plus de 4000 aéroports (messages METAR et TAF).

Les stations disponibles sont représentées par des disques jaunes et rouges sur la carte.

Passer la souris dessus pour voir le nom de la station.

Cliquer dessus pour voir les observations et prévisions météorologiques.

Pour changer de carte: cliquez sur les boutons verts avec une croix noire pour zoomer, sur le bouton vert avec un tiret pour effectuer un zoom arrière, ou sur les flèches vertes pour les cartes adjacentes.


METAR-TAF: